Time,TemperatureF,DewpointF,PressureIn,WindDirection,WindDirectionDegrees,WindSpeedMPH,WindSpeedGustMPH,Humidity,HourlyPrecipIn,Conditions,Clouds,dailyrainin,SolarRadiationWatts/m^2,SoftwareType,DateUTC
2013-07-08 00:02:00,63.0,61.0,29.82,SW,233,0.0,1.0,93,0.00,,,0.00,0.000000,,2013-07-08 07:02:00,
2013-07-08 00:11:00,63.0,61.0,29.82,SW,233,0.0,1.0,93,0.00,,,0.00,0.000000,,2013-07-08 07:11:00,
2013-07-08 00:22:00,63.0,61.0,29.82,SW,233,0.0,0.0,94,0.00,,,0.00,0.000000,,2013-07-08 07:22:00,
2013-07-08 00:34:00,63.0,61.0,29.82,SW,233,0.0,1.0,94,0.00,,,0.00,0.000000,,2013-07-08 07:34:00,
2013-07-08 00:44:00,63.0,61.0,29.82,SW,233,0.0,1.0,94,0.00,,,0.00,0.000000,,2013-07-08 07:44:00,
2013-07-08 00:53:00,63.0,61.0,29.82,SW,233,0.0,2.0,94,0.00,,,0.00,0.000000,,2013-07-08 07:53:00,
2013-07-08 01:01:00,63.0,61.0,29.82,SE,146,0.0,3.0,94,0.00,,,0.00,0.000000,,2013-07-08 08:01:00,
2013-07-08 01:11:00,63.0,61.0,29.82,SE,146,0.0,3.0,94,0.00,,,0.00,0.000000,,2013-07-08 08:11:00,
2013-07-08 01:22:00,63.0,61.0,29.82,SSE,163,1.0,3.0,94,0.00,,,0.00,0.000000,,2013-07-08 08:22:00,
2013-07-08 01:33:00,63.0,61.0,29.82,ESE,102,1.0,3.0,94,0.00,,,0.00,0.000000,,2013-07-08 08:33:00,
2013-07-08 01:42:00,63.0,61.0,29.82,ESE,102,1.0,3.0,94,0.00,,,0.00,0.000000,,2013-07-08 08:42:00,
2013-07-08 01:53:00,63.0,61.0,29.82,ESE,110,1.0,4.0,94,0.00,,,0.00,0.000000,,2013-07-08 08:53:00,
2013-07-08 02:01:00,63.0,62.0,29.82,East,99,0.0,3.0,95,0.00,,,0.00,0.000000,,2013-07-08 09:01:00,
2013-07-08 02:11:00,63.0,62.0,29.82,East,99,0.0,3.0,95,0.00,,,0.00,0.000000,,2013-07-08 09:11:00,
2013-07-08 02:21:00,63.0,62.0,29.82,East,99,0.0,1.0,95,0.00,,,0.00,0.000000,,2013-07-08 09:21:00,
2013-07-08 02:34:00,63.0,62.0,29.81,East,99,0.0,2.0,95,0.00,,,0.00,0.000000,,2013-07-08 09:34:00,
2013-07-08 02:43:00,63.0,62.0,29.81,East,99,0.0,2.0,95,0.00,,,0.00,0.000000,,2013-07-08 09:43:00,
2013-07-08 02:53:00,63.0,62.0,29.81,North,355,1.0,2.0,95,0.00,,,0.00,0.000000,,2013-07-08 09:53:00,
2013-07-08 03:01:00,63.0,62.0,29.81,North,355,0.0,1.0,95,0.00,,,0.00,0.000000,,2013-07-08 10:01:00,
2013-07-08 03:11:00,63.0,62.0,29.81,North,355,0.0,1.0,95,0.00,,,0.00,0.000000,,2013-07-08 10:11:00,
2013-07-08 03:22:00,63.0,62.0,29.81,North,355,0.0,1.0,95,0.00,,,0.00,0.000000,,2013-07-08 10:22:00,
2013-07-08 03:34:00,63.0,62.0,29.81,SSE,151,0.0,2.0,95,0.00,,,0.00,0.000000,,2013-07-08 10:34:00,
2013-07-08 03:43:00,63.0,62.0,29.81,SSE,151,0.0,2.0,95,0.00,,,0.00,0.000000,,2013-07-08 10:43:00,
2013-07-08 03:53:00,63.0,62.0,29.81,SE,136,0.0,2.0,95,0.00,,,0.00,0.000000,,2013-07-08 10:53:00,
2013-07-08 04:01:00,63.0,62.0,29.80,SE,136,0.0,1.0,96,0.00,,,0.00,0.000000,,2013-07-08 11:01:00,
2013-07-08 04:11:00,63.0,62.0,29.80,SE,136,0.0,1.0,96,0.00,,,0.00,0.000000,,2013-07-08 11:11:00,
2013-07-08 04:22:00,63.0,62.0,29.81,SE,136,0.0,1.0,95,0.00,,,0.00,0.000000,,2013-07-08 11:22:00,
2013-07-08 04:33:00,63.0,62.0,29.81,SE,136,0.0,1.0,96,0.00,,,0.00,0.000000,,2013-07-08 11:33:00,
2013-07-08 04:43:00,63.0,62.0,29.81,SE,136,0.0,1.0,96,0.00,,,0.00,0.000000,,2013-07-08 11:43:00,
2013-07-08 04:53:00,63.0,62.0,29.81,SE,136,0.0,1.0,96,0.00,,,0.00,0.000000,,2013-07-08 11:53:00,
2013-07-08 05:01:00,63.0,62.0,29.81,NNW,333,1.0,4.0,96,0.00,,,0.00,0.000000,,2013-07-08 12:01:00,
2013-07-08 05:11:00,63.0,62.0,29.81,NNW,333,1.0,4.0,96,0.00,,,0.00,0.000000,,2013-07-08 12:11:00,
2013-07-08 05:22:00,62.0,61.0,29.81,NNW,332,0.0,2.0,95,0.00,,,0.00,0.000000,,2013-07-08 12:22:00,
2013-07-08 05:33:00,62.0,61.0,29.82,North,355,2.0,3.0,96,0.00,,,0.00,0.000000,,2013-07-08 12:33:00,
2013-07-08 05:53:00,62.0,61.0,29.82,North,355,0.0,1.0,96,0.00,,,0.00,0.000000,,2013-07-08 12:53:00,
2013-07-08 06:01:00,62.0,61.0,29.82,North,355,0.0,2.0,96,0.00,,,0.00,0.000000,,2013-07-08 13:01:00,
2013-07-08 06:11:00,62.0,61.0,29.82,North,355,0.0,2.0,96,0.00,,,0.00,0.000000,,2013-07-08 13:11:00,
2013-07-08 06:22:00,62.0,61.0,29.82,North,360,0.0,3.0,96,0.00,,,0.00,9.000000,,2013-07-08 13:22:00,
2013-07-08 06:42:00,62.0,61.0,29.83,North,360,0.0,2.0,96,0.00,,,0.00,18.000000,,2013-07-08 13:42:00,
2013-07-08 06:53:00,62.0,61.0,29.83,North,360,0.0,1.0,96,0.00,,,0.00,32.000000,,2013-07-08 13:53:00,
2013-07-08 07:01:00,62.0,61.0,29.83,North,360,0.0,1.0,97,0.00,,,0.00,42.000000,,2013-07-08 14:01:00,
2013-07-08 07:12:00,62.0,61.0,29.83,North,360,0.0,1.0,97,0.00,,,0.00,42.000000,,2013-07-08 14:12:00,
2013-07-08 07:22:00,62.0,61.0,29.83,NNW,341,0.0,2.0,97,0.00,,,0.00,54.000000,,2013-07-08 14:22:00,
2013-07-08 07:33:00,62.0,61.0,29.84,West,277,1.0,3.0,97,0.00,,,0.00,62.000000,,2013-07-08 14:33:00,
2013-07-08 07:43:00,62.0,61.0,29.84,West,277,1.0,3.0,97,0.00,,,0.00,62.000000,,2013-07-08 14:43:00,
2013-07-08 07:53:00,62.0,61.0,29.85,NW,308,1.0,3.0,97,0.00,,,0.00,81.000000,,2013-07-08 14:53:00,
2013-07-08 08:01:00,62.0,61.0,29.85,NW,308,0.0,2.0,96,0.00,,,0.00,120.000000,,2013-07-08 15:01:00,
2013-07-08 08:11:00,62.0,61.0,29.85,NW,308,0.0,2.0,96,0.00,,,0.00,120.000000,,2013-07-08 15:11:00,
2013-07-08 08:22:00,62.0,61.0,29.85,NW,308,0.0,1.0,96,0.00,,,0.00,149.000000,,2013-07-08 15:22:00,
2013-07-08 08:33:00,62.0,61.0,29.85,NW,308,0.0,1.0,96,0.00,,,0.00,149.000000,,2013-07-08 15:33:00,
2013-07-08 08:43:00,63.0,62.0,29.86,North,351,1.0,3.0,95,0.00,,,0.00,214.000000,,2013-07-08 15:43:00,
2013-07-08 08:53:00,64.0,62.0,29.87,West,262,0.0,3.0,94,0.00,,,0.00,195.000000,,2013-07-08 15:53:00,
2013-07-08 09:01:00,64.0,62.0,29.87,West,262,0.0,3.0,94,0.00,,,0.00,195.000000,,2013-07-08 16:01:00,
2013-07-08 09:11:00,64.0,62.0,29.87,West,268,0.0,3.0,93,0.00,,,0.00,202.000000,,2013-07-08 16:11:00,
2013-07-08 09:22:00,65.0,63.0,29.88,SW,215,0.0,2.0,92,0.00,,,0.00,236.000000,,2013-07-08 16:22:00,
2013-07-08 09:33:00,65.0,63.0,29.88,SW,215,0.0,2.0,92,0.00,,,0.00,236.000000,,2013-07-08 16:33:00,
2013-07-08 09:43:00,64.0,62.0,29.88,SE,136,1.0,4.0,92,0.00,,,0.00,258.000000,,2013-07-08 16:43:00,
2013-07-08 09:52:00,64.0,62.0,29.88,SE,136,1.0,4.0,92,0.00,,,0.00,258.000000,,2013-07-08 16:52:00,
2013-07-08 10:02:00,65.0,63.0,29.88,SSE,159,0.0,3.0,92,0.00,,,0.00,355.000000,,2013-07-08 17:02:00,
2013-07-08 10:22:00,71.0,65.0,29.87,West,259,3.0,8.0,81,0.00,,,0.00,717.000000,,2013-07-08 17:22:00,
2013-07-08 10:34:00,71.0,65.0,29.87,West,259,3.0,8.0,81,0.00,,,0.00,717.000000,,2013-07-08 17:34:00,
2013-07-08 10:44:00,72.0,65.0,29.87,NE,43,1.0,5.0,79,0.00,,,0.00,754.000000,,2013-07-08 17:44:00,
2013-07-08 10:53:00,74.0,65.0,29.87,WNW,286,2.0,7.0,73,0.00,,,0.00,791.000000,,2013-07-08 17:53:00,
2013-07-08 11:01:00,74.0,65.0,29.87,WNW,286,2.0,7.0,73,0.00,,,0.00,791.000000,,2013-07-08 18:01:00,
2013-07-08 11:34:00,76.0,67.0,29.87,SW,236,2.0,7.0,73,0.00,,,0.00,819.000000,,2013-07-08 18:34:00,
2013-07-08 11:45:00,77.0,66.0,29.86,West,281,2.0,8.0,70,0.00,,,0.00,865.000000,,2013-07-08 18:45:00,
2013-07-08 12:05:00,77.0,66.0,29.86,WSW,252,3.0,9.0,69,0.00,,,0.00,888.000000,,2013-07-08 19:05:00,
2013-07-08 12:22:00,79.0,66.0,29.85,WSW,244,5.0,9.0,65,0.00,,,0.00,921.000000,,2013-07-08 19:22:00,
2013-07-08 12:34:00,79.0,66.0,29.85,WSW,244,5.0,9.0,65,0.00,,,0.00,921.000000,,2013-07-08 19:34:00,
2013-07-08 12:44:00,79.0,67.0,29.85,West,273,2.0,8.0,66,0.00,,,0.00,926.000000,,2013-07-08 19:44:00,
2013-07-08 12:53:00,81.0,67.0,29.85,West,262,2.0,7.0,62,0.00,,,0.00,933.000000,,2013-07-08 19:53:00,
2013-07-08 14:13:00,81.0,66.0,29.84,SSW,207,4.0,10.0,61,0.00,,,0.00,909.000000,,2013-07-08 21:13:00,
2013-07-08 14:44:00,80.0,66.0,29.84,SE,136,4.0,12.0,63,0.00,,,0.00,872.000000,,2013-07-08 21:44:00,
2013-07-08 14:54:00,82.0,66.0,29.84,SW,235,2.0,7.0,58,0.00,,,0.00,849.000000,,2013-07-08 21:54:00,
2013-07-08 15:22:00,80.0,67.0,29.83,SSE,159,4.0,11.0,64,0.00,,,0.00,791.000000,,2013-07-08 22:22:00,
2013-07-08 15:34:00,80.0,67.0,29.83,SSE,159,4.0,11.0,64,0.00,,,0.00,791.000000,,2013-07-08 22:34:00,
2013-07-08 16:03:00,82.0,66.0,29.82,SSE,157,4.0,9.0,58,0.00,,,0.00,722.000000,,2013-07-08 23:03:00,
2013-07-08 16:14:00,81.0,65.0,29.82,SE,132,5.0,11.0,59,0.00,,,0.00,684.000000,,2013-07-08 23:14:00,
2013-07-08 16:22:00,80.0,65.0,29.82,SE,140,6.0,12.0,61,0.00,,,0.00,645.000000,,2013-07-08 23:22:00,
2013-07-08 17:53:00,80.0,66.0,29.79,SE,128,2.0,7.0,62,0.00,,,0.00,42.000000,,2013-07-09 00:53:00,
2013-07-08 18:13:00,80.0,64.0,29.80,WSW,239,3.0,7.0,59,0.00,,,0.00,39.000000,,2013-07-09 01:13:00,
2013-07-08 19:31:00,-999.0,-99.9,29.81,South,171,3.0,6.0,68,0.00,,,0.00,28.000000,,2013-07-09 02:31:00,
2013-07-08 20:34:00,72.0,64.0,29.82,SSE,160,0.0,0.0,77,0.00,,,0.00,0.000000,,2013-07-09 03:34:00,
2013-07-08 20:45:00,72.0,64.0,29.82,SSE,160,0.0,1.0,77,0.00,,,0.00,0.000000,,2013-07-09 03:45:00,
2013-07-08 21:02:00,72.0,64.0,29.83,SSE,160,0.0,2.0,75,0.00,,,0.00,0.000000,,2013-07-09 04:02:00,
2013-07-08 21:11:00,71.0,63.0,29.83,SSE,160,0.0,1.0,77,0.00,,,0.00,0.000000,,2013-07-09 04:11:00,
2013-07-08 21:22:00,71.0,64.0,29.84,SSE,160,0.0,2.0,79,0.00,,,0.00,0.000000,,2013-07-09 04:22:00,
2013-07-08 21:33:00,71.0,64.0,29.84,SSE,160,0.0,2.0,79,0.00,,,0.00,0.000000,,2013-07-09 04:33:00,
2013-07-08 21:42:00,70.0,64.0,29.85,SSE,160,0.0,0.0,80,0.00,,,0.00,0.000000,,2013-07-09 04:42:00,
2013-07-08 21:53:00,70.0,64.0,29.85,SSE,160,0.0,1.0,80,0.00,,,0.00,0.000000,,2013-07-09 04:53:00,
2013-07-08 22:02:00,70.0,64.0,29.85,SSE,160,0.0,1.0,80,0.00,,,0.00,0.000000,,2013-07-09 05:02:00,
2013-07-08 22:11:00,70.0,64.0,29.85,SSE,160,0.0,1.0,80,0.00,,,0.00,0.000000,,2013-07-09 05:11:00,
2013-07-08 22:22:00,69.0,63.0,29.86,SSE,160,0.0,2.0,80,0.00,,,0.00,0.000000,,2013-07-09 05:22:00,
2013-07-08 22:33:00,69.0,63.0,29.86,SSE,160,0.0,2.0,80,0.00,,,0.00,0.000000,,2013-07-09 05:33:00,
2013-07-08 22:42:00,68.0,62.0,29.87,SSE,160,1.0,2.0,82,0.00,,,0.00,0.000000,,2013-07-09 05:42:00,
2013-07-08 22:52:00,68.0,63.0,29.87,East,92,0.0,5.0,84,0.00,,,0.00,0.000000,,2013-07-09 05:52:00,
2013-07-08 23:01:00,68.0,63.0,29.87,East,92,0.0,5.0,84,0.00,,,0.00,0.000000,,2013-07-09 06:01:00,
2013-07-08 23:11:00,67.0,63.0,29.87,ESE,121,1.0,3.0,86,0.00,,,0.00,0.000000,,2013-07-09 06:11:00,
2013-07-08 23:22:00,67.0,63.0,29.87,ESE,121,1.0,3.0,86,0.00,,,0.00,0.000000,,2013-07-09 06:22:00,
2013-07-08 23:33:00,67.0,63.0,29.87,ESE,121,0.0,1.0,87,0.00,,,0.00,0.000000,,2013-07-09 06:33:00,
2013-07-08 23:43:00,67.0,63.0,29.87,ESE,121,0.0,1.0,88,0.00,,,0.00,0.000000,,2013-07-09 06:43:00,
2013-07-08 23:53:00,66.0,62.0,29.87,ESE,121,0.0,0.0,88,0.00,,,0.00,0.000000,,2013-07-09 06:53:00,